Columbia Metropolitan Airport
KCAE : now visible

Airfield :











YOU CAN JOIN US ON...

 
LOGIN :

Register | Disclaimer

   EN    FR    IT 

 









Legend :    VFR   Marginal VFR   IFR   Intensive IFR   Very Intensive IFR
Visi :
Ceiling :
>= 8 km
>= 3000ft
5 to 8 km
1000 to 3000 ft
1500m to 5 km
500 to 1000 ft
800 to 1500m
200 to 500 ft
< 800m
< 200 ft
Symbols :   Thunderstorms  Fog  Heavy snow  Heavy precipitations  Wind > 20 kt






- Airport Elevation : 236 ft
- IATA code : CAE


KCAE - Columbia Metropolitan

CURRENT METAR :
  • 130556Z 06008KT 10SM -RA OVC020 04/01 A3034 RMK AO2 SLP274 P0002 60003 T00440011 10089 20044 58024

EXPIRED METARs :
  • 130456Z 06010KT 8SM -RA OVC023 05/01 A3037 RMK AO2 RAE05B23 SLP285 P0001 T00500011 401171022
  • 130356Z 06011KT 9SM -RA OVC024 06/00 A3039 RMK AO2 RAB22E31B52 SLP291 P0000 T00610000

TAF KCAE
Valid from the 13 at 06:00 until the 14 at 06:00 UTC


130540Z 1306/1406 06008KT 6SM -RA OVC020
TEMPO 1307/1309 5SM -RA OVC015
FM130900 04008KT 4SM -RA OVC007
FM131600 03005KT 1 1/2SM -RA BR OVC004



MET'MAP, your aeronautical weather chart ! - Copyright ORBIFLY December 2007 - Disclaimer

ORBIFLY MET'MAP TEAM :

Programming & Development : Alexandra Zaïnal
Concept & original design : Baudouin d'Aumeries
Assistance for programming : Marc-Olivier Méhu
Technical & hardware support : Manuel Goepfert

Contact : metmap@orbifly.com




SOURCES & CREDITS :

   NOAA       Earth
Advisory